sensor_id;sensor_type;location;lat;lon;timestamp;P1;durP1;ratioP1;P2;durP2;ratioP2
14992;SDS011;7592;51.088;13.732;2023-06-22T00:02:20;11.17;;;10.00;;
14992;SDS011;7592;51.088;13.732;2023-06-22T00:07:12;9.50;;;8.73;;
14992;SDS011;7592;51.088;13.732;2023-06-22T00:12:05;9.77;;;8.90;;
14992;SDS011;7592;51.088;13.732;2023-06-22T00:16:57;9.73;;;8.73;;
14992;SDS011;7592;51.088;13.732;2023-06-22T00:21:50;10.60;;;9.77;;
14992;SDS011;7592;51.088;13.732;2023-06-22T00:26:46;9.93;;;9.23;;
14992;SDS011;7592;51.088;13.732;2023-06-22T00:31:40;9.13;;;8.40;;
14992;SDS011;7592;51.088;13.732;2023-06-22T00:36:32;10.17;;;9.37;;
14992;SDS011;7592;51.088;13.732;2023-06-22T00:41:24;10.47;;;9.60;;
14992;SDS011;7592;51.088;13.732;2023-06-22T00:46:20;10.27;;;9.37;;
14992;SDS011;7592;51.088;13.732;2023-06-22T00:51:14;10.03;;;9.23;;
14992;SDS011;7592;51.088;13.732;2023-06-22T00:56:06;9.17;;;8.47;;
14992;SDS011;7592;51.088;13.732;2023-06-22T01:01:00;10.20;;;9.37;;
14992;SDS011;7592;51.088;13.732;2023-06-22T01:12:51;9.70;;;8.90;;
14992;SDS011;7592;51.088;13.732;2023-06-22T01:17:46;9.17;;;8.47;;
14992;SDS011;7592;51.088;13.732;2023-06-22T01:22:59;9.40;;;8.70;;
14992;SDS011;7592;51.088;13.732;2023-06-22T01:33:39;9.60;;;8.80;;
14992;SDS011;7592;51.088;13.732;2023-06-22T01:38:34;9.33;;;8.43;;
14992;SDS011;7592;51.088;13.732;2023-06-22T01:43:28;9.00;;;8.37;;
14992;SDS011;7592;51.088;13.732;2023-06-22T01:48:20;10.13;;;9.33;;
14992;SDS011;7592;51.088;13.732;2023-06-22T01:53:14;10.17;;;9.37;;
14992;SDS011;7592;51.088;13.732;2023-06-22T01:58:06;9.90;;;9.10;;
14992;SDS011;7592;51.088;13.732;2023-06-22T02:03:03;11.10;;;9.93;;
14992;SDS011;7592;51.088;13.732;2023-06-22T02:08:09;10.73;;;9.73;;
14992;SDS011;7592;51.088;13.732;2023-06-22T02:13:15;10.57;;;9.57;;
14992;SDS011;7592;51.088;13.732;2023-06-22T02:18:08;10.90;;;10.10;;
14992;SDS011;7592;51.088;13.732;2023-06-22T02:23:05;12.17;;;11.00;;
14992;SDS011;7592;51.088;13.732;2023-06-22T02:27:59;11.53;;;10.53;;
14992;SDS011;7592;51.088;13.732;2023-06-22T02:32:51;11.70;;;10.70;;
14992;SDS011;7592;51.088;13.732;2023-06-22T02:37:50;11.37;;;10.37;;
14992;SDS011;7592;51.088;13.732;2023-06-22T02:42:43;9.83;;;9.13;;
14992;SDS011;7592;51.088;13.732;2023-06-22T02:47:35;10.50;;;9.70;;
14992;SDS011;7592;51.088;13.732;2023-06-22T02:52:27;11.07;;;10.00;;
14992;SDS011;7592;51.088;13.732;2023-06-22T02:57:19;9.50;;;8.80;;
14992;SDS011;7592;51.088;13.732;2023-06-22T03:02:11;10.10;;;9.30;;
14992;SDS011;7592;51.088;13.732;2023-06-22T03:07:05;11.53;;;10.53;;
14992;SDS011;7592;51.088;13.732;2023-06-22T03:11:58;10.70;;;9.90;;
14992;SDS011;7592;51.088;13.732;2023-06-22T03:16:58;11.13;;;10.10;;
14992;SDS011;7592;51.088;13.732;2023-06-22T03:21:54;9.93;;;9.10;;
14992;SDS011;7592;51.088;13.732;2023-06-22T03:26:47;11.13;;;10.13;;
14992;SDS011;7592;51.088;13.732;2023-06-22T03:31:40;11.00;;;10.00;;
14992;SDS011;7592;51.088;13.732;2023-06-22T03:36:32;11.73;;;10.73;;
14992;SDS011;7592;51.088;13.732;2023-06-22T03:41:26;12.30;;;11.07;;
14992;SDS011;7592;51.088;13.732;2023-06-22T03:46:18;10.30;;;9.40;;
14992;SDS011;7592;51.088;13.732;2023-06-22T03:51:12;10.77;;;9.87;;
14992;SDS011;7592;51.088;13.732;2023-06-22T03:56:04;11.43;;;10.33;;
14992;SDS011;7592;51.088;13.732;2023-06-22T04:00:56;11.80;;;10.70;;
14992;SDS011;7592;51.088;13.732;2023-06-22T04:05:48;10.70;;;9.80;;
14992;SDS011;7592;51.088;13.732;2023-06-22T04:10:40;11.43;;;10.33;;
14992;SDS011;7592;51.088;13.732;2023-06-22T04:15:33;11.43;;;10.33;;
14992;SDS011;7592;51.088;13.732;2023-06-22T04:20:26;11.93;;;10.83;;
14992;SDS011;7592;51.088;13.732;2023-06-22T04:25:20;10.93;;;9.83;;
14992;SDS011;7592;51.088;13.732;2023-06-22T04:30:13;11.07;;;10.07;;
14992;SDS011;7592;51.088;13.732;2023-06-22T04:35:09;10.70;;;9.60;;
14992;SDS011;7592;51.088;13.732;2023-06-22T04:40:02;11.67;;;9.80;;
14992;SDS011;7592;51.088;13.732;2023-06-22T04:44:56;9.20;;;8.50;;
14992;SDS011;7592;51.088;13.732;2023-06-22T04:49:52;9.57;;;8.67;;
14992;SDS011;7592;51.088;13.732;2023-06-22T04:54:44;9.87;;;8.53;;
14992;SDS011;7592;51.088;13.732;2023-06-22T04:59:40;9.13;;;8.10;;
14992;SDS011;7592;51.088;13.732;2023-06-22T05:04:34;8.52;;;7.70;;
14992;SDS011;7592;51.088;13.732;2023-06-22T05:09:32;8.77;;;8.07;;
14992;SDS011;7592;51.088;13.732;2023-06-22T05:14:25;7.82;;;7.25;;
14992;SDS011;7592;51.088;13.732;2023-06-22T05:19:17;8.05;;;7.35;;
14992;SDS011;7592;51.088;13.732;2023-06-22T05:24:09;9.18;;;8.48;;
14992;SDS011;7592;51.088;13.732;2023-06-22T05:29:02;8.13;;;7.40;;
14992;SDS011;7592;51.088;13.732;2023-06-22T05:33:55;8.85;;;8.15;;
14992;SDS011;7592;51.088;13.732;2023-06-22T05:38:47;8.68;;;7.85;;
14992;SDS011;7592;51.088;13.732;2023-06-22T05:43:40;8.88;;;8.18;;
14992;SDS011;7592;51.088;13.732;2023-06-22T05:48:32;8.40;;;7.80;;
14992;SDS011;7592;51.088;13.732;2023-06-22T05:53:24;8.93;;;8.00;;
14992;SDS011;7592;51.088;13.732;2023-06-22T05:58:16;7.47;;;6.88;;
14992;SDS011;7592;51.088;13.732;2023-06-22T06:03:10;8.90;;;8.20;;
14992;SDS011;7592;51.088;13.732;2023-06-22T06:08:06;8.02;;;7.38;;
14992;SDS011;7592;51.088;13.732;2023-06-22T06:12:58;8.93;;;8.13;;
14992;SDS011;7592;51.088;13.732;2023-06-22T06:17:54;7.68;;;7.18;;
14992;SDS011;7592;51.088;13.732;2023-06-22T06:22:46;8.40;;;7.72;;
14992;SDS011;7592;51.088;13.732;2023-06-22T06:27:39;8.52;;;7.90;;
14992;SDS011;7592;51.088;13.732;2023-06-22T06:32:31;8.85;;;8.20;;
14992;SDS011;7592;51.088;13.732;2023-06-22T06:37:23;9.77;;;9.10;;
14992;SDS011;7592;51.088;13.732;2023-06-22T06:42:15;10.10;;;9.45;;
14992;SDS011;7592;51.088;13.732;2023-06-22T06:47:08;7.82;;;7.32;;
14992;SDS011;7592;51.088;13.732;2023-06-22T06:52:00;8.95;;;8.00;;
14992;SDS011;7592;51.088;13.732;2023-06-22T06:56:52;10.52;;;8.18;;
14992;SDS011;7592;51.088;13.732;2023-06-22T07:01:44;9.05;;;8.25;;
14992;SDS011;7592;51.088;13.732;2023-06-22T07:06:55;9.15;;;8.07;;
14992;SDS011;7592;51.088;13.732;2023-06-22T07:11:48;8.82;;;8.05;;
14992;SDS011;7592;51.088;13.732;2023-06-22T07:16:40;8.73;;;7.85;;
14992;SDS011;7592;51.088;13.732;2023-06-22T07:21:32;8.90;;;7.95;;
14992;SDS011;7592;51.088;13.732;2023-06-22T07:26:24;9.30;;;8.13;;
14992;SDS011;7592;51.088;13.732;2023-06-22T07:31:16;10.35;;;8.02;;
14992;SDS011;7592;51.088;13.732;2023-06-22T07:36:09;8.43;;;7.85;;
14992;SDS011;7592;51.088;13.732;2023-06-22T07:41:01;9.45;;;8.57;;
14992;SDS011;7592;51.088;13.732;2023-06-22T07:45:56;8.23;;;7.72;;
14992;SDS011;7592;51.088;13.732;2023-06-22T07:50:49;10.02;;;9.18;;
14992;SDS011;7592;51.088;13.732;2023-06-22T07:55:42;8.90;;;8.00;;
14992;SDS011;7592;51.088;13.732;2023-06-22T08:00:35;8.90;;;8.23;;
14992;SDS011;7592;51.088;13.732;2023-06-22T08:05:27;8.27;;;7.75;;
14992;SDS011;7592;51.088;13.732;2023-06-22T08:10:19;8.15;;;7.35;;
14992;SDS011;7592;51.088;13.732;2023-06-22T08:15:12;8.07;;;7.38;;
14992;SDS011;7592;51.088;13.732;2023-06-22T08:20:04;8.93;;;8.02;;
14992;SDS011;7592;51.088;13.732;2023-06-22T08:25:04;8.65;;;7.93;;
14992;SDS011;7592;51.088;13.732;2023-06-22T08:29:58;6.85;;;6.43;;
14992;SDS011;7592;51.088;13.732;2023-06-22T08:34:50;7.35;;;6.80;;
14992;SDS011;7592;51.088;13.732;2023-06-22T08:39:42;6.55;;;5.88;;
14992;SDS011;7592;51.088;13.732;2023-06-22T08:44:35;6.32;;;5.93;;
14992;SDS011;7592;51.088;13.732;2023-06-22T08:49:27;6.07;;;5.78;;
14992;SDS011;7592;51.088;13.732;2023-06-22T08:54:19;6.28;;;5.88;;
14992;SDS011;7592;51.088;13.732;2023-06-22T08:59:11;6.13;;;5.72;;
14992;SDS011;7592;51.088;13.732;2023-06-22T09:04:04;6.03;;;5.72;;
14992;SDS011;7592;51.088;13.732;2023-06-22T09:08:57;10.30;;;6.45;;
14992;SDS011;7592;51.088;13.732;2023-06-22T09:13:52;5.95;;;5.57;;
14992;SDS011;7592;51.088;13.732;2023-06-22T09:18:48;5.20;;;4.90;;
14992;SDS011;7592;51.088;13.732;2023-06-22T09:23:40;6.40;;;5.90;;
14992;SDS011;7592;51.088;13.732;2023-06-22T09:28:33;5.70;;;5.30;;
14992;SDS011;7592;51.088;13.732;2023-06-22T09:33:26;5.82;;;5.43;;
14992;SDS011;7592;51.088;13.732;2023-06-22T09:38:18;6.03;;;5.72;;
14992;SDS011;7592;51.088;13.732;2023-06-22T09:43:10;5.72;;;5.40;;
14992;SDS011;7592;51.088;13.732;2023-06-22T09:48:03;6.38;;;5.97;;
14992;SDS011;7592;51.088;13.732;2023-06-22T09:52:55;6.57;;;5.97;;
14992;SDS011;7592;51.088;13.732;2023-06-22T09:57:48;6.85;;;6.35;;
14992;SDS011;7592;51.088;13.732;2023-06-22T10:02:43;7.50;;;6.88;;
14992;SDS011;7592;51.088;13.732;2023-06-22T10:07:36;7.40;;;6.80;;
14992;SDS011;7592;51.088;13.732;2023-06-22T10:12:34;6.05;;;5.65;;
14992;SDS011;7592;51.088;13.732;2023-06-22T10:17:26;7.10;;;6.60;;
14992;SDS011;7592;51.088;13.732;2023-06-22T10:22:18;6.78;;;6.28;;
14992;SDS011;7592;51.088;13.732;2023-06-22T10:27:11;6.97;;;6.47;;
14992;SDS011;7592;51.088;13.732;2023-06-22T10:32:03;7.18;;;6.72;;
14992;SDS011;7592;51.088;13.732;2023-06-22T10:36:56;7.55;;;6.93;;
14992;SDS011;7592;51.088;13.732;2023-06-22T10:41:48;6.68;;;6.28;;
14992;SDS011;7592;51.088;13.732;2023-06-22T10:46:40;6.57;;;6.18;;
14992;SDS011;7592;51.088;13.732;2023-06-22T10:51:32;7.22;;;6.78;;
14992;SDS011;7592;51.088;13.732;2023-06-22T10:56:25;8.07;;;7.57;;
14992;SDS011;7592;51.088;13.732;2023-06-22T11:01:17;7.50;;;6.75;;
14992;SDS011;7592;51.088;13.732;2023-06-22T11:06:26;7.88;;;7.10;;
14992;SDS011;7592;51.088;13.732;2023-06-22T11:11:18;7.45;;;6.88;;
14992;SDS011;7592;51.088;13.732;2023-06-22T11:16:10;5.93;;;5.63;;
14992;SDS011;7592;51.088;13.732;2023-06-22T11:21:02;6.78;;;6.20;;
14992;SDS011;7592;51.088;13.732;2023-06-22T11:25:55;7.07;;;6.63;;
14992;SDS011;7592;51.088;13.732;2023-06-22T11:30:47;7.40;;;7.00;;
14992;SDS011;7592;51.088;13.732;2023-06-22T11:35:39;6.60;;;6.20;;
14992;SDS011;7592;51.088;13.732;2023-06-22T11:40:32;7.13;;;6.72;;
14992;SDS011;7592;51.088;13.732;2023-06-22T11:45:24;8.10;;;7.15;;
14992;SDS011;7592;51.088;13.732;2023-06-22T11:50:16;7.63;;;7.03;;
14992;SDS011;7592;51.088;13.732;2023-06-22T11:55:08;7.50;;;7.00;;
14992;SDS011;7592;51.088;13.732;2023-06-22T12:00:01;10.45;;;6.90;;
14992;SDS011;7592;51.088;13.732;2023-06-22T12:04:57;7.75;;;6.88;;
14992;SDS011;7592;51.088;13.732;2023-06-22T12:09:51;7.13;;;6.68;;
14992;SDS011;7592;51.088;13.732;2023-06-22T12:14:43;7.78;;;7.22;;
14992;SDS011;7592;51.088;13.732;2023-06-22T12:19:35;8.63;;;7.25;;
14992;SDS011;7592;51.088;13.732;2023-06-22T12:24:27;9.18;;;8.50;;
14992;SDS011;7592;51.088;13.732;2023-06-22T12:29:20;7.82;;;7.20;;
14992;SDS011;7592;51.088;13.732;2023-06-22T12:34:12;7.35;;;6.80;;
14992;SDS011;7592;51.088;13.732;2023-06-22T12:39:05;7.95;;;7.47;;
14992;SDS011;7592;51.088;13.732;2023-06-22T12:43:57;7.38;;;6.95;;
14992;SDS011;7592;51.088;13.732;2023-06-22T12:48:49;7.88;;;7.25;;
14992;SDS011;7592;51.088;13.732;2023-06-22T12:53:41;8.00;;;7.25;;
14992;SDS011;7592;51.088;13.732;2023-06-22T12:58:35;11.27;;;7.80;;
14992;SDS011;7592;51.088;13.732;2023-06-22T13:03:27;8.07;;;7.38;;
14992;SDS011;7592;51.088;13.732;2023-06-22T13:08:19;8.35;;;7.65;;
14992;SDS011;7592;51.088;13.732;2023-06-22T13:13:12;8.18;;;7.38;;
14992;SDS011;7592;51.088;13.732;2023-06-22T13:18:04;8.23;;;7.50;;
14992;SDS011;7592;51.088;13.732;2023-06-22T13:22:56;7.88;;;7.25;;
14992;SDS011;7592;51.088;13.732;2023-06-22T13:27:48;8.13;;;7.05;;
14992;SDS011;7592;51.088;13.732;2023-06-22T13:32:41;8.10;;;7.35;;
14992;SDS011;7592;51.088;13.732;2023-06-22T13:37:34;8.00;;;7.03;;
14992;SDS011;7592;51.088;13.732;2023-06-22T13:42:26;7.70;;;6.93;;
14992;SDS011;7592;51.088;13.732;2023-06-22T13:47:18;8.02;;;7.10;;
14992;SDS011;7592;51.088;13.732;2023-06-22T13:52:11;8.13;;;7.43;;
14992;SDS011;7592;51.088;13.732;2023-06-22T13:57:04;7.78;;;7.07;;
14992;SDS011;7592;51.088;13.732;2023-06-22T14:01:57;8.20;;;7.50;;
14992;SDS011;7592;51.088;13.732;2023-06-22T14:06:49;7.50;;;7.00;;
14992;SDS011;7592;51.088;13.732;2023-06-22T14:11:41;8.35;;;7.57;;
14992;SDS011;7592;51.088;13.732;2023-06-22T14:16:33;7.90;;;7.40;;
14992;SDS011;7592;51.088;13.732;2023-06-22T14:21:25;8.52;;;8.02;;
14992;SDS011;7592;51.088;13.732;2023-06-22T14:26:18;8.38;;;7.65;;
14992;SDS011;7592;51.088;13.732;2023-06-22T14:31:10;8.35;;;7.65;;
14992;SDS011;7592;51.088;13.732;2023-06-22T14:36:03;8.65;;;7.85;;
14992;SDS011;7592;51.088;13.732;2023-06-22T14:40:55;7.60;;;7.10;;
14992;SDS011;7592;51.088;13.732;2023-06-22T14:46:04;7.43;;;6.82;;
14992;SDS011;7592;51.088;13.732;2023-06-22T14:51:00;7.80;;;7.30;;
14992;SDS011;7592;51.088;13.732;2023-06-22T14:55:52;8.05;;;7.50;;
14992;SDS011;7592;51.088;13.732;2023-06-22T15:00:46;7.53;;;7.00;;
14992;SDS011;7592;51.088;13.732;2023-06-22T15:05:38;7.75;;;7.25;;
14992;SDS011;7592;51.088;13.732;2023-06-22T15:10:30;7.97;;;7.28;;
14992;SDS011;7592;51.088;13.732;2023-06-22T15:15:23;7.47;;;7.03;;
14992;SDS011;7592;51.088;13.732;2023-06-22T15:20:15;8.88;;;8.07;;
14992;SDS011;7592;51.088;13.732;2023-06-22T15:25:07;8.98;;;8.18;;
14992;SDS011;7592;51.088;13.732;2023-06-22T15:29:59;9.93;;;7.90;;
14992;SDS011;7592;51.088;13.732;2023-06-22T15:34:52;8.38;;;7.70;;
14992;SDS011;7592;51.088;13.732;2023-06-22T15:39:45;9.05;;;8.25;;
14992;SDS011;7592;51.088;13.732;2023-06-22T15:44:38;9.30;;;8.70;;
14992;SDS011;7592;51.088;13.732;2023-06-22T15:49:30;9.05;;;8.32;;
14992;SDS011;7592;51.088;13.732;2023-06-22T15:54:23;9.63;;;8.50;;
14992;SDS011;7592;51.088;13.732;2023-06-22T15:59:15;8.50;;;7.72;;
14992;SDS011;7592;51.088;13.732;2023-06-22T16:04:07;8.50;;;7.88;;
14992;SDS011;7592;51.088;13.732;2023-06-22T16:08:59;9.50;;;8.70;;
14992;SDS011;7592;51.088;13.732;2023-06-22T16:13:51;8.90;;;8.27;;
14992;SDS011;7592;51.088;13.732;2023-06-22T16:18:43;9.50;;;8.73;;
14992;SDS011;7592;51.088;13.732;2023-06-22T16:23:37;10.00;;;9.10;;
14992;SDS011;7592;51.088;13.732;2023-06-22T16:28:29;9.45;;;8.75;;
14992;SDS011;7592;51.088;13.732;2023-06-22T16:33:21;9.80;;;9.10;;
14992;SDS011;7592;51.088;13.732;2023-06-22T16:38:13;9.77;;;8.97;;
14992;SDS011;7592;51.088;13.732;2023-06-22T16:43:05;10.13;;;9.47;;
14992;SDS011;7592;51.088;13.732;2023-06-22T16:47:58;9.73;;;8.83;;
14992;SDS011;7592;51.088;13.732;2023-06-22T16:52:50;10.17;;;9.07;;
14992;SDS011;7592;51.088;13.732;2023-06-22T16:57:42;10.27;;;9.30;;
14992;SDS011;7592;51.088;13.732;2023-06-22T17:02:35;9.73;;;9.10;;
14992;SDS011;7592;51.088;13.732;2023-06-22T17:07:34;17.17;;;10.10;;
14992;SDS011;7592;51.088;13.732;2023-06-22T17:12:29;10.53;;;9.47;;
14992;SDS011;7592;51.088;13.732;2023-06-22T17:17:21;9.13;;;8.53;;
14992;SDS011;7592;51.088;13.732;2023-06-22T17:22:17;11.00;;;9.90;;
14992;SDS011;7592;51.088;13.732;2023-06-22T17:27:10;10.20;;;9.37;;
14992;SDS011;7592;51.088;13.732;2023-06-22T17:32:02;9.53;;;8.60;;
14992;SDS011;7592;51.088;13.732;2023-06-22T17:36:56;9.90;;;9.07;;
14992;SDS011;7592;51.088;13.732;2023-06-22T17:41:50;11.07;;;9.83;;
14992;SDS011;7592;51.088;13.732;2023-06-22T17:46:42;9.83;;;9.13;;
14992;SDS011;7592;51.088;13.732;2023-06-22T17:51:35;10.43;;;9.57;;
14992;SDS011;7592;51.088;13.732;2023-06-22T17:56:28;10.27;;;9.20;;
14992;SDS011;7592;51.088;13.732;2023-06-22T18:01:39;11.07;;;9.97;;
14992;SDS011;7592;51.088;13.732;2023-06-22T18:06:33;12.03;;;10.10;;
14992;SDS011;7592;51.088;13.732;2023-06-22T18:11:33;9.80;;;8.90;;
14992;SDS011;7592;51.088;13.732;2023-06-22T18:16:26;11.50;;;10.20;;
14992;SDS011;7592;51.088;13.732;2023-06-22T18:21:21;10.53;;;9.57;;
14992;SDS011;7592;51.088;13.732;2023-06-22T18:26:13;11.13;;;10.23;;
14992;SDS011;7592;51.088;13.732;2023-06-22T18:31:08;11.00;;;9.13;;
14992;SDS011;7592;51.088;13.732;2023-06-22T18:36:01;12.37;;;11.07;;
14992;SDS011;7592;51.088;13.732;2023-06-22T18:40:55;11.70;;;10.80;;
14992;SDS011;7592;51.088;13.732;2023-06-22T18:45:47;11.57;;;10.67;;
14992;SDS011;7592;51.088;13.732;2023-06-22T18:50:41;12.50;;;9.77;;
14992;SDS011;7592;51.088;13.732;2023-06-22T18:55:34;11.33;;;10.43;;
14992;SDS011;7592;51.088;13.732;2023-06-22T19:00:32;11.87;;;10.87;;
14992;SDS011;7592;51.088;13.732;2023-06-22T19:05:41;11.90;;;10.63;;
14992;SDS011;7592;51.088;13.732;2023-06-22T19:15:32;13.57;;;11.77;;
14992;SDS011;7592;51.088;13.732;2023-06-22T19:20:25;13.90;;;12.67;;
14992;SDS011;7592;51.088;13.732;2023-06-22T19:25:27;15.00;;;13.63;;
14992;SDS011;7592;51.088;13.732;2023-06-22T19:30:27;12.57;;;11.57;;
14992;SDS011;7592;51.088;13.732;2023-06-22T19:35:20;12.30;;;11.27;;
14992;SDS011;7592;51.088;13.732;2023-06-22T19:40:13;12.50;;;11.47;;
14992;SDS011;7592;51.088;13.732;2023-06-22T19:45:07;12.03;;;11.00;;
14992;SDS011;7592;51.088;13.732;2023-06-22T19:50:00;14.00;;;12.80;;
14992;SDS011;7592;51.088;13.732;2023-06-22T19:54:53;12.73;;;11.50;;
14992;SDS011;7592;51.088;13.732;2023-06-22T19:59:45;12.30;;;11.40;;
14992;SDS011;7592;51.088;13.732;2023-06-22T20:04:40;12.60;;;11.60;;
14992;SDS011;7592;51.088;13.732;2023-06-22T20:09:32;12.10;;;10.87;;
14992;SDS011;7592;51.088;13.732;2023-06-22T20:14:32;11.93;;;10.93;;
14992;SDS011;7592;51.088;13.732;2023-06-22T20:19:34;11.47;;;10.57;;
14992;SDS011;7592;51.088;13.732;2023-06-22T20:24:36;12.57;;;11.57;;
14992;SDS011;7592;51.088;13.732;2023-06-22T20:29:31;14.13;;;11.23;;
14992;SDS011;7592;51.088;13.732;2023-06-22T20:34:37;11.03;;;10.20;;
14992;SDS011;7592;51.088;13.732;2023-06-22T20:39:36;12.17;;;11.20;;
14992;SDS011;7592;51.088;13.732;2023-06-22T20:44:29;12.43;;;11.27;;
14992;SDS011;7592;51.088;13.732;2023-06-22T20:49:21;10.90;;;10.10;;
14992;SDS011;7592;51.088;13.732;2023-06-22T20:54:13;12.80;;;11.67;;
14992;SDS011;7592;51.088;13.732;2023-06-22T20:59:09;12.83;;;11.43;;
14992;SDS011;7592;51.088;13.732;2023-06-22T21:04:01;13.43;;;12.33;;
14992;SDS011;7592;51.088;13.732;2023-06-22T21:08:53;11.47;;;10.50;;
14992;SDS011;7592;51.088;13.732;2023-06-22T21:13:46;11.57;;;10.47;;
14992;SDS011;7592;51.088;13.732;2023-06-22T21:18:38;12.07;;;10.97;;
14992;SDS011;7592;51.088;13.732;2023-06-22T21:23:30;10.63;;;9.83;;
14992;SDS011;7592;51.088;13.732;2023-06-22T21:28:23;10.30;;;9.60;;
14992;SDS011;7592;51.088;13.732;2023-06-22T21:33:15;10.83;;;9.93;;
14992;SDS011;7592;51.088;13.732;2023-06-22T21:38:07;11.13;;;10.43;;
14992;SDS011;7592;51.088;13.732;2023-06-22T21:42:59;12.27;;;11.27;;
14992;SDS011;7592;51.088;13.732;2023-06-22T21:47:55;13.03;;;11.77;;
14992;SDS011;7592;51.088;13.732;2023-06-22T21:52:47;14.53;;;13.20;;
14992;SDS011;7592;51.088;13.732;2023-06-22T21:57:39;15.10;;;13.57;;
14992;SDS011;7592;51.088;13.732;2023-06-22T22:02:32;16.97;;;15.57;;
14992;SDS011;7592;51.088;13.732;2023-06-22T22:07:24;16.67;;;14.93;;
14992;SDS011;7592;51.088;13.732;2023-06-22T22:12:17;16.37;;;14.93;;
14992;SDS011;7592;51.088;13.732;2023-06-22T22:17:09;18.80;;;17.07;;
14992;SDS011;7592;51.088;13.732;2023-06-22T22:22:02;17.20;;;15.43;;
14992;SDS011;7592;51.088;13.732;2023-06-22T22:26:55;21.77;;;19.70;;
14992;SDS011;7592;51.088;13.732;2023-06-22T22:31:47;19.03;;;16.93;;
14992;SDS011;7592;51.088;13.732;2023-06-22T22:36:39;18.77;;;17.10;;
14992;SDS011;7592;51.088;13.732;2023-06-22T22:41:31;16.70;;;15.13;;
14992;SDS011;7592;51.088;13.732;2023-06-22T22:46:27;17.00;;;15.50;;
14992;SDS011;7592;51.088;13.732;2023-06-22T22:51:19;16.23;;;14.97;;
14992;SDS011;7592;51.088;13.732;2023-06-22T22:56:11;16.03;;;14.60;;
14992;SDS011;7592;51.088;13.732;2023-06-22T23:01:04;11.67;;;10.53;;
14992;SDS011;7592;51.088;13.732;2023-06-22T23:05:56;6.70;;;6.20;;
14992;SDS011;7592;51.088;13.732;2023-06-22T23:10:48;4.37;;;3.97;;
14992;SDS011;7592;51.088;13.732;2023-06-22T23:15:41;13.23;;;6.10;;
14992;SDS011;7592;51.088;13.732;2023-06-22T23:20:37;2.20;;;2.10;;
14992;SDS011;7592;51.088;13.732;2023-06-22T23:25:29;7.17;;;4.57;;
14992;SDS011;7592;51.088;13.732;2023-06-22T23:30:22;10.00;;;3.23;;
14992;SDS011;7592;51.088;13.732;2023-06-22T23:35:17;31.37;;;6.90;;
14992;SDS011;7592;51.088;13.732;2023-06-22T23:40:10;4.13;;;2.03;;
14992;SDS011;7592;51.088;13.732;2023-06-22T23:45:08;9.30;;;3.20;;
14992;SDS011;7592;51.088;13.732;2023-06-22T23:50:00;8.60;;;3.50;;
14992;SDS011;7592;51.088;13.732;2023-06-22T23:54:53;9.47;;;4.70;;
14992;SDS011;7592;51.088;13.732;2023-06-22T23:59:45;19.57;;;5.83;;
